Culdrose, United Kingdom
Current Conditions -  °F | °C
As of 3:50 AM on Sunday 23 Nov 2014 (Local Time) from EGDR Reporting Station
Light Rain Light Rain  
Wind Chill:   Ceiling: 4000
Heat Index:   Visibility: 6mi
Dew Point:   Wind: 7mph
Humidity: 93%   Direction: 10°N
Pressure: 30.03"   Gusts: NA
Location:  50.08°N, 5.25°W
Report Text: EGDR 230350Z 01006KT 9999 -RA FEW025 BKN040 OVC070 08/07 Q1017 BLU
Loading
Personal Weather Stations






























Interactive Weather Map New forecast layout! Learn more

10-Day Weather Forecast

Advertisements
Track Severe Weather on mobile